createdAt,value
2018-01-10T00:01:49.591Z,23.00
2018-01-10T00:04:17.900Z,26.80
2018-01-10T00:06:45.450Z,22.53
2018-01-10T00:09:15.224Z,27.63
2018-01-10T00:11:43.572Z,23.33
2018-01-10T00:14:12.660Z,24.03
2018-01-10T00:16:40.812Z,27.70
2018-01-10T00:19:08.414Z,24.63
2018-01-10T00:21:35.953Z,24.07
2018-01-10T00:24:03.561Z,24.63
2018-01-10T00:26:31.128Z,23.40
2018-01-10T00:28:58.671Z,25.90
2018-01-10T00:31:27.627Z,24.37
2018-01-10T00:33:55.195Z,25.33
2018-01-10T00:36:23.451Z,23.83
2018-01-10T00:38:51.072Z,23.40
2018-01-10T00:41:18.758Z,25.27
2018-01-10T00:43:47.710Z,27.10
2018-01-10T00:46:15.313Z,25.53
2018-01-10T00:48:42.921Z,26.03
2018-01-10T00:51:10.478Z,27.70
2018-01-10T00:53:38.064Z,24.80
2018-01-10T00:56:06.391Z,25.43
2018-01-10T00:58:40.072Z,24.07
2018-01-10T01:01:07.690Z,25.53
2018-01-10T01:03:35.255Z,22.47
2018-01-10T01:06:02.899Z,28.53
2018-01-10T01:08:32.425Z,24.60
2018-01-10T01:11:00.747Z,24.77
2018-01-10T01:13:28.335Z,28.40
2018-01-10T01:15:56.661Z,28.23
2018-01-10T01:18:24.223Z,24.60
2018-01-10T01:20:51.874Z,22.60
2018-01-10T01:23:19.433Z,28.70
2018-01-10T01:25:47.086Z,26.77
2018-01-10T01:28:14.688Z,25.93
2018-01-10T01:30:42.275Z,25.67
2018-01-10T01:33:09.852Z,26.37
2018-01-10T01:35:38.180Z,25.13
2018-01-10T01:38:12.118Z,27.53
2018-01-10T01:40:39.750Z,25.63
2018-01-10T01:43:07.326Z,24.47
2018-01-10T01:45:34.872Z,28.30
2018-01-10T01:48:05.516Z,25.40
2018-01-10T01:50:33.108Z,26.33
2018-01-10T01:53:00.710Z,24.67
2018-01-10T01:55:28.293Z,25.77
2018-01-10T01:57:55.878Z,24.83
2018-01-10T02:00:23.435Z,25.63
2018-01-10T02:02:51.046Z,26.37
2018-01-10T02:05:19.172Z,27.30
2018-01-10T02:07:46.821Z,28.20
2018-01-10T02:10:14.410Z,24.00
2018-01-10T02:12:42.143Z,25.40
2018-01-10T02:15:09.696Z,22.60
2018-01-10T02:17:37.360Z,25.50
2018-01-10T02:20:05.082Z,24.43
2018-01-10T02:22:33.412Z,23.80
2018-01-10T02:25:00.992Z,23.57
2018-01-10T02:27:37.420Z,26.00
2018-01-10T02:30:05.079Z,22.47
2018-01-10T02:32:32.639Z,26.80
2018-01-10T02:35:00.987Z,22.00
2018-01-10T02:37:29.593Z,26.77
2018-01-10T02:39:57.177Z,27.40
2018-01-10T02:42:36.499Z,24.63
2018-01-10T02:45:04.186Z,26.23
2018-01-10T02:47:31.897Z,27.00
2018-01-10T02:50:00.049Z,26.30
2018-01-10T02:52:27.676Z,28.70
2018-01-10T02:54:55.236Z,26.70
2018-01-10T02:57:22.816Z,25.50
2018-01-10T02:59:50.408Z,24.03
2018-01-10T03:02:18.940Z,22.27
2018-01-10T03:04:46.608Z,24.53
2018-01-10T03:07:16.155Z,23.73
2018-01-10T03:09:43.724Z,21.40
2018-01-10T03:12:11.305Z,20.50
2018-01-10T03:14:38.877Z,20.80
2018-01-10T03:17:06.430Z,23.80
2018-01-10T03:19:34.100Z,24.37
2018-01-10T03:22:01.713Z,22.90
2018-01-10T03:24:29.272Z,23.23
2018-01-10T03:26:56.867Z,19.47
2018-01-10T03:29:24.449Z,24.10
2018-01-10T03:31:52.023Z,21.83
2018-01-10T03:34:20.368Z,23.40
2018-01-10T03:36:47.948Z,23.27
2018-01-10T03:39:17.514Z,23.23
2018-01-10T03:41:45.871Z,20.67
2018-01-10T03:44:13.444Z,21.73
2018-01-10T03:46:41.064Z,22.03
2018-01-10T03:49:11.932Z,22.67
2018-01-10T03:51:39.494Z,20.73
2018-01-10T03:54:08.504Z,20.30
2018-01-10T03:56:36.093Z,20.00
2018-01-10T03:59:06.980Z,22.07
2018-01-10T04:01:34.533Z,22.27
2018-01-10T04:04:02.914Z,21.00
2018-01-10T04:06:31.293Z,23.80
2018-01-10T04:08:59.635Z,20.97
2018-01-10T04:11:27.261Z,19.83
2018-01-10T04:13:54.819Z,19.60
2018-01-10T04:16:22.381Z,20.67
2018-01-10T04:18:50.012Z,22.13
2018-01-10T04:21:17.604Z,23.27
2018-01-10T04:23:45.196Z,21.33
2018-01-10T04:26:12.813Z,21.57
2018-01-10T04:28:42.184Z,23.47
2018-01-10T04:31:09.728Z,19.00
2018-01-10T04:33:37.304Z,21.83
2018-01-10T04:36:04.887Z,20.17
2018-01-10T04:38:33.425Z,22.20
2018-01-10T04:41:01.077Z,19.40
2018-01-10T04:43:28.628Z,24.70
2018-01-10T04:45:56.958Z,19.83
2018-01-10T04:48:24.581Z,19.23
2018-01-10T04:50:52.229Z,21.73
2018-01-10T04:53:20.578Z,21.43
2018-01-10T04:55:48.209Z,20.77
2018-01-10T04:58:19.905Z,21.27
2018-01-10T05:00:47.523Z,20.20
2018-01-10T05:03:15.136Z,21.93
2018-01-10T05:05:42.686Z,18.93
2018-01-10T05:08:10.622Z,20.80
2018-01-10T05:10:38.780Z,19.60
2018-01-10T05:13:06.348Z,20.40
2018-01-10T05:15:34.014Z,21.73
2018-01-10T05:18:03.544Z,22.87
2018-01-10T05:20:31.146Z,20.80
2018-01-10T05:23:00.385Z,20.73
2018-01-10T05:25:27.961Z,21.43
2018-01-10T05:27:55.521Z,22.27
2018-01-10T05:30:25.786Z,21.40
2018-01-10T05:32:53.384Z,21.77
2018-01-10T05:35:20.977Z,21.67
2018-01-10T05:37:48.583Z,21.03
2018-01-10T05:40:16.137Z,21.37
2018-01-10T05:42:43.753Z,21.03
2018-01-10T05:45:11.342Z,21.37
2018-01-10T05:47:39.883Z,22.07
2018-01-10T05:50:07.444Z,19.90
2018-01-10T05:52:35.916Z,19.10
2018-01-10T05:55:03.507Z,19.50
2018-01-10T05:57:35.164Z,17.10
2018-01-10T06:00:02.744Z,18.53
2018-01-10T06:02:30.300Z,19.50
2018-01-10T06:04:57.879Z,18.37
2018-01-10T06:07:25.571Z,18.40
2018-01-10T06:09:53.974Z,20.53
2018-01-10T06:12:22.349Z,21.50
2018-01-10T06:14:50.733Z,19.50
2018-01-10T06:17:22.089Z,19.97
2018-01-10T06:19:50.464Z,17.13
2018-01-10T06:22:19.557Z,20.30
2018-01-10T06:24:47.898Z,22.27
2018-01-10T06:27:15.443Z,22.33
2018-01-10T06:29:43.013Z,19.37
2018-01-10T06:32:11.954Z,19.97
2018-01-10T06:34:40.313Z,21.53
2018-01-10T06:37:07.921Z,18.93
2018-01-10T06:39:36.219Z,17.20
2018-01-10T06:42:03.967Z,18.30
2018-01-10T06:44:31.656Z,19.80
2018-01-10T06:46:59.229Z,15.23
2018-01-10T06:49:26.802Z,17.40
2018-01-10T06:51:54.400Z,15.87
2018-01-10T06:54:21.988Z,16.70
2018-01-10T06:56:49.629Z,15.47
2018-01-10T06:59:18.959Z,15.60
2018-01-10T07:01:46.565Z,15.83
2018-01-10T07:04:14.148Z,15.67
2018-01-10T07:06:42.507Z,15.13
2018-01-10T07:09:14.797Z,15.77
2018-01-10T07:11:43.225Z,15.30
2018-01-10T07:14:10.784Z,14.93
2018-01-10T07:16:38.331Z,17.90
2018-01-10T07:19:05.925Z,15.00
2018-01-10T07:21:33.478Z,16.03
2018-01-10T07:24:01.068Z,15.70
2018-01-10T07:26:28.936Z,17.13
2018-01-10T07:28:57.232Z,15.93
2018-01-10T07:31:25.537Z,15.73
2018-01-10T07:33:53.112Z,16.67
2018-01-10T07:36:20.698Z,17.20
2018-01-10T07:38:48.242Z,15.03
2018-01-10T07:41:15.857Z,15.37
2018-01-10T07:43:44.463Z,17.13
2018-01-10T07:46:12.039Z,17.03
2018-01-10T07:48:40.609Z,14.33
2018-01-10T07:51:08.929Z,15.00
2018-01-10T07:53:36.485Z,14.53
2018-01-10T07:56:04.119Z,16.37
2018-01-10T07:58:31.715Z,14.47
2018-01-10T08:00:59.275Z,14.93
2018-01-10T08:03:26.832Z,16.33
2018-01-10T08:05:55.167Z,17.03
2018-01-10T08:08:23.496Z,14.13
2018-01-10T08:10:51.089Z,14.33
2018-01-10T08:13:18.640Z,14.23
2018-01-10T08:15:46.222Z,12.97
2018-01-10T08:18:18.068Z,12.87
2018-01-10T08:20:45.623Z,12.37
2018-01-10T08:23:13.186Z,14.73
2018-01-10T08:25:40.777Z,13.20
2018-01-10T08:28:09.091Z,12.13
2018-01-10T08:30:36.641Z,14.30
2018-01-10T08:33:04.313Z,12.00
2018-01-10T08:35:33.101Z,12.53
2018-01-10T08:38:05.873Z,14.40
2018-01-10T08:40:33.430Z,10.43
2018-01-10T08:43:01.002Z,12.43
2018-01-10T08:45:28.580Z,10.80
2018-01-10T08:47:57.075Z,10.67
2018-01-10T08:50:25.160Z,12.57
2018-01-10T08:52:54.186Z,10.87
2018-01-10T08:55:21.718Z,10.03
2018-01-10T08:57:49.297Z,14.57
2018-01-10T09:00:16.868Z,13.93
2018-01-10T09:02:44.998Z,13.43
2018-01-10T09:05:12.570Z,11.70
2018-01-10T09:07:40.148Z,12.40
2018-01-10T09:10:07.716Z,12.07
2018-01-10T09:12:35.257Z,12.30
2018-01-10T09:15:02.837Z,13.70
2018-01-10T09:17:31.347Z,11.40
2018-01-10T09:19:58.935Z,11.57
2018-01-10T09:22:27.808Z,13.70
2018-01-10T09:24:56.199Z,14.60
2018-01-10T09:27:24.816Z,16.17
2018-01-10T09:29:53.101Z,12.70
2018-01-10T09:32:21.404Z,13.77
2018-01-10T09:34:48.931Z,14.53
2018-01-10T09:37:16.496Z,13.70
2018-01-10T09:39:45.075Z,12.20
2018-01-10T09:42:12.636Z,12.53
2018-01-10T09:44:40.234Z,14.50
2018-01-10T09:47:08.302Z,12.93
2018-01-10T09:49:36.589Z,12.83
2018-01-10T09:52:04.223Z,12.50
2018-01-10T09:54:31.817Z,11.03
2018-01-10T09:56:59.371Z,14.43
2018-01-10T09:59:27.005Z,12.20
2018-01-10T10:01:54.549Z,13.47
2018-01-10T10:04:22.805Z,12.43
2018-01-10T10:06:52.445Z,12.60
2018-01-10T10:09:20.011Z,11.43
2018-01-10T10:11:47.702Z,12.60
2018-01-10T10:14:15.306Z,12.87
2018-01-10T10:16:43.622Z,14.43
2018-01-10T10:19:11.977Z,12.10
2018-01-10T10:21:39.558Z,11.50
2018-01-10T10:24:07.090Z,11.17
2018-01-10T10:26:34.650Z,9.57
2018-01-10T10:29:02.253Z,11.40
2018-01-10T10:31:29.814Z,10.87
2018-01-10T10:33:57.381Z,10.03
2018-01-10T10:36:26.535Z,11.43
2018-01-10T10:38:56.833Z,9.60
2018-01-10T10:41:24.391Z,10.43
2018-01-10T10:43:51.991Z,9.83
2018-01-10T10:46:20.308Z,10.93
2018-01-10T10:48:47.864Z,10.10
2018-01-10T10:51:15.422Z,9.87
2018-01-10T10:53:42.960Z,11.03
2018-01-10T10:56:10.501Z,12.27
2018-01-10T10:58:38.888Z,9.03
2018-01-10T11:01:06.438Z,10.33
2018-01-10T11:03:35.588Z,10.23
2018-01-10T11:06:03.172Z,9.67
2018-01-10T11:08:35.036Z,9.70
2018-01-10T11:11:02.594Z,7.77
2018-01-10T11:13:30.205Z,10.37
2018-01-10T11:15:58.574Z,11.33
2018-01-10T11:18:27.961Z,9.60
2018-01-10T11:20:55.631Z,10.70
2018-01-10T11:23:23.202Z,8.23
2018-01-10T11:25:51.561Z,8.97
2018-01-10T11:28:28.012Z,11.00
2018-01-10T11:30:55.581Z,8.90
2018-01-10T11:33:23.128Z,11.00
2018-01-10T11:35:50.721Z,10.83
2018-01-10T11:38:18.260Z,8.47
2018-01-10T11:40:45.795Z,9.47
2018-01-10T11:43:15.169Z,10.07
2018-01-10T11:45:44.051Z,11.67
2018-01-10T11:48:12.840Z,12.67
2018-01-10T11:50:41.232Z,8.40
2018-01-10T11:53:08.816Z,10.07
2018-01-10T11:55:36.374Z,11.50
2018-01-10T11:58:10.852Z,11.10
2018-01-10T12:00:38.961Z,9.93
2018-01-10T12:03:06.511Z,10.33
2018-01-10T12:05:34.888Z,9.17
2018-01-10T12:08:03.346Z,8.47
2018-01-10T12:10:30.937Z,10.23
2018-01-10T12:12:59.378Z,10.33
2018-01-10T12:15:27.153Z,12.33
2018-01-10T12:17:56.518Z,11.80
2018-01-10T12:20:24.106Z,10.43
2018-01-10T12:22:51.685Z,11.67
2018-01-10T12:25:19.227Z,9.17
2018-01-10T12:27:46.804Z,11.83
2018-01-10T12:30:14.359Z,11.60
2018-01-10T12:32:41.912Z,12.97
2018-01-10T12:35:09.545Z,10.13
2018-01-10T12:37:38.018Z,9.43
2018-01-10T12:40:06.330Z,10.40
2018-01-10T12:42:33.972Z,7.80
2018-01-10T12:45:01.501Z,9.60
2018-01-10T12:47:31.772Z,9.43
2018-01-10T12:49:59.356Z,14.53
2018-01-10T12:52:27.385Z,10.43
2018-01-10T12:54:54.995Z,13.20
2018-01-10T12:57:22.601Z,12.37
2018-01-10T12:59:50.939Z,10.63
2018-01-10T13:02:18.537Z,10.63
2018-01-10T13:04:46.144Z,9.57
2018-01-10T13:07:16.627Z,10.50
2018-01-10T13:09:44.187Z,12.20
2018-01-10T13:12:11.831Z,11.60
2018-01-10T13:14:39.409Z,10.87
2018-01-10T13:17:06.983Z,10.67
2018-01-10T13:19:34.642Z,9.17
2018-01-10T13:22:03.228Z,10.77
2018-01-10T13:24:30.770Z,10.70
2018-01-10T13:26:58.890Z,11.03
2018-01-10T13:29:28.506Z,11.67
2018-01-10T13:31:56.049Z,11.63
2018-01-10T13:34:23.649Z,9.73
2018-01-10T13:36:52.609Z,11.00
2018-01-10T13:39:20.945Z,11.00
2018-01-10T13:41:48.529Z,10.27
2018-01-10T13:44:16.892Z,9.73
2018-01-10T13:46:44.432Z,10.77
2018-01-10T13:49:13.006Z,9.80
2018-01-10T13:51:40.587Z,10.73
2018-01-10T13:54:08.132Z,9.33
2018-01-10T13:56:35.706Z,8.67
2018-01-10T13:59:03.276Z,11.37
2018-01-10T14:01:31.290Z,13.60
2018-01-10T14:03:59.648Z,13.00
2018-01-10T14:06:27.297Z,9.17
2018-01-10T14:08:55.490Z,8.37
2018-01-10T14:11:23.098Z,10.50
2018-01-10T14:13:50.649Z,9.33
2018-01-10T14:16:18.222Z,9.70
2018-01-10T14:18:45.811Z,8.07
2018-01-10T14:21:13.355Z,7.53
2018-01-10T14:23:40.927Z,9.10
2018-01-10T14:26:08.515Z,8.10
2018-01-10T14:28:37.049Z,10.83
2018-01-10T14:31:04.658Z,7.97
2018-01-10T14:33:32.228Z,9.67
2018-01-10T14:35:59.776Z,7.80
2018-01-10T14:38:27.322Z,9.77
2018-01-10T14:40:54.906Z,9.03
2018-01-10T14:43:22.456Z,7.87
2018-01-10T14:45:50.038Z,7.77
2018-01-10T14:48:22.812Z,8.40
2018-01-10T14:50:50.402Z,9.37
2018-01-10T14:53:17.954Z,11.10
2018-01-10T14:55:45.564Z,7.80
2018-01-10T14:58:13.814Z,7.37
2018-01-10T15:00:42.124Z,8.00
2018-01-10T15:03:09.723Z,9.27
2018-01-10T15:05:39.747Z,10.80
2018-01-10T15:08:07.302Z,7.27
2018-01-10T15:10:34.922Z,7.87
2018-01-10T15:13:03.176Z,8.40
2018-01-10T15:15:30.769Z,10.03
2018-01-10T15:18:00.351Z,8.47
2018-01-10T15:20:29.106Z,10.13
2018-01-10T15:22:56.698Z,9.57
2018-01-10T15:25:24.318Z,7.90
2018-01-10T15:27:52.018Z,7.87
2018-01-10T15:30:19.678Z,8.10
2018-01-10T15:32:47.294Z,9.63
2018-01-10T15:35:14.940Z,10.10
2018-01-10T15:37:43.254Z,9.77
2018-01-10T15:40:10.880Z,9.93
2018-01-10T15:42:39.152Z,8.90
2018-01-10T15:45:06.841Z,10.57
2018-01-10T15:47:34.522Z,8.23
2018-01-10T15:50:02.155Z,7.93
2018-01-10T15:52:29.737Z,8.40
2018-01-10T15:54:57.427Z,11.57
2018-01-10T15:57:26.699Z,10.90
2018-01-10T15:59:54.391Z,11.50
2018-01-10T16:02:21.997Z,11.43
2018-01-10T16:04:49.614Z,12.00
2018-01-10T16:07:18.168Z,12.93
2018-01-10T16:09:47.840Z,11.87
2018-01-10T16:12:16.260Z,13.60
2018-01-10T16:14:43.882Z,14.57
2018-01-10T16:17:15.700Z,13.60
2018-01-10T16:19:43.290Z,19.53
2018-01-10T16:22:10.832Z,21.23
2018-01-10T16:24:38.438Z,25.20
2018-01-10T16:27:07.310Z,16.40
2018-01-10T16:29:35.713Z,14.83
2018-01-10T16:32:04.196Z,15.67
2018-01-10T16:34:31.783Z,18.77
2018-01-10T16:36:59.339Z,19.20
2018-01-10T16:39:26.988Z,14.77
2018-01-10T16:41:55.257Z,14.00
2018-01-10T16:44:23.094Z,12.87
2018-01-10T16:46:51.434Z,13.27
2018-01-10T16:49:19.188Z,10.73
2018-01-10T16:51:46.776Z,18.40
2018-01-10T16:54:14.378Z,13.13
2018-01-10T16:56:42.022Z,13.70
2018-01-10T16:59:09.570Z,14.83
2018-01-10T17:01:37.168Z,9.87
2018-01-10T17:04:05.732Z,11.80
2018-01-10T17:06:33.371Z,9.23
2018-01-10T17:09:05.314Z,10.50
2018-01-10T17:11:32.855Z,9.60
2018-01-10T17:14:01.215Z,9.53
2018-01-10T17:16:28.813Z,10.10
2018-01-10T17:18:56.475Z,6.10
2018-01-10T17:21:24.021Z,8.40
2018-01-10T17:23:53.130Z,7.37
2018-01-10T17:26:21.463Z,7.17
2018-01-10T17:28:50.085Z,8.30
2018-01-10T17:31:19.938Z,7.10
2018-01-10T17:33:47.570Z,8.90
2018-01-10T17:36:17.846Z,8.60
2018-01-10T17:38:45.582Z,6.07
2018-01-10T17:41:13.198Z,7.40
2018-01-10T17:43:41.733Z,7.47
2018-01-10T17:46:09.366Z,8.63
2018-01-10T17:48:39.725Z,6.73
2018-01-10T17:51:07.893Z,6.97
2018-01-10T17:53:35.937Z,8.50
2018-01-10T17:56:04.298Z,8.40
2018-01-10T17:58:31.938Z,6.70
2018-01-10T18:00:59.608Z,8.90
2018-01-10T18:03:32.323Z,6.73
2018-01-10T18:06:00.031Z,5.93
2018-01-10T18:08:32.163Z,10.10
2018-01-10T18:11:01.822Z,12.93
2018-01-10T18:13:31.322Z,9.33
2018-01-10T18:15:58.902Z,10.70
2018-01-10T18:18:28.429Z,11.00
2018-01-10T18:20:56.126Z,10.27
2018-01-10T18:23:23.708Z,8.67
2018-01-10T18:25:51.348Z,11.70
2018-01-10T18:28:19.696Z,12.37
2018-01-10T18:30:47.280Z,19.13
2018-01-10T18:33:16.796Z,20.77
2018-01-10T18:35:46.407Z,16.00
2018-01-10T18:38:16.750Z,11.87
2018-01-10T18:40:44.319Z,14.17
2018-01-10T18:43:11.945Z,13.17
2018-01-10T18:45:39.633Z,12.50
2018-01-10T18:48:07.611Z,11.77
2018-01-10T18:50:35.246Z,11.57
2018-01-10T18:53:02.797Z,10.43
2018-01-10T18:55:30.355Z,10.10
2018-01-10T18:57:58.962Z,11.97
2018-01-10T19:00:27.067Z,9.37
2018-01-10T19:02:56.954Z,10.07
2018-01-10T19:05:24.628Z,10.07
2018-01-10T19:07:54.033Z,8.70
2018-01-10T19:10:23.638Z,10.47
2018-01-10T19:12:53.487Z,8.97
2018-01-10T19:15:21.058Z,10.33
2018-01-10T19:17:49.729Z,9.77
2018-01-10T19:20:17.374Z,11.47
2018-01-10T19:22:45.061Z,14.67
2018-01-10T19:25:13.427Z,10.93
2018-01-10T19:27:41.069Z,14.53
2018-01-10T19:30:09.437Z,12.97
2018-01-10T19:32:36.981Z,11.17
2018-01-10T19:35:05.351Z,10.63
2018-01-10T19:37:49.430Z,9.07
2018-01-10T19:40:17.038Z,12.83
2018-01-10T19:42:44.730Z,10.43
2018-01-10T19:45:12.296Z,9.50
2018-01-10T19:47:39.954Z,9.40
2018-01-10T19:50:08.452Z,8.63
2018-01-10T19:52:36.048Z,9.30
2018-01-10T19:55:09.432Z,10.43
2018-01-10T19:57:40.182Z,9.30
2018-01-10T20:00:11.151Z,7.37
2018-01-10T20:02:40.315Z,10.07
2018-01-10T20:05:12.195Z,9.73
2018-01-10T20:07:41.699Z,12.50
2018-01-10T20:10:11.990Z,9.20
2018-01-10T20:12:40.461Z,9.80
2018-01-10T20:15:09.254Z,10.33
2018-01-10T20:17:39.895Z,10.67
2018-01-10T20:20:07.512Z,9.93
2018-01-10T20:22:35.879Z,10.43
2018-01-10T20:25:03.476Z,9.70
2018-01-10T20:27:33.024Z,8.50
2018-01-10T20:30:00.672Z,11.43
2018-01-10T20:32:28.298Z,9.30
2018-01-10T20:34:55.880Z,8.77
2018-01-10T20:37:25.512Z,10.50
2018-01-10T20:39:53.084Z,9.57
2018-01-10T20:42:21.410Z,9.87
2018-01-10T20:44:49.018Z,11.97
2018-01-10T20:47:17.431Z,10.87
2018-01-10T20:49:45.199Z,10.47
2018-01-10T20:52:12.852Z,9.30
2018-01-10T20:54:45.381Z,10.37
2018-01-10T20:57:13.108Z,9.80
2018-01-10T20:59:43.848Z,11.53
2018-01-10T21:02:13.391Z,10.90
2018-01-10T21:04:43.043Z,12.30
2018-01-10T21:07:15.687Z,11.00
2018-01-10T21:09:48.926Z,10.17
2018-01-10T21:12:21.911Z,11.07
2018-01-10T21:14:50.300Z,11.53
2018-01-10T21:17:29.124Z,12.83
2018-01-10T21:19:57.291Z,13.27
2018-01-10T21:22:24.948Z,11.27
2018-01-10T21:24:53.116Z,11.43
2018-01-10T21:27:22.333Z,12.17
2018-01-10T21:29:50.750Z,10.77
2018-01-10T21:32:18.320Z,12.07
2018-01-10T21:34:45.955Z,12.43
2018-01-10T21:37:15.059Z,11.73
2018-01-10T21:39:42.679Z,11.70
2018-01-10T21:42:13.119Z,12.10
2018-01-10T21:44:43.206Z,12.00
2018-01-10T21:47:11.971Z,11.57
2018-01-10T21:49:42.201Z,11.30
2018-01-10T21:52:12.737Z,13.27
2018-01-10T21:54:41.305Z,14.07
2018-01-10T21:57:11.678Z,14.97
2018-01-10T21:59:39.299Z,12.67
2018-01-10T22:02:06.964Z,14.73
2018-01-10T22:04:34.588Z,14.43
2018-01-10T22:07:02.244Z,14.00
2018-01-10T22:09:30.808Z,15.37
2018-01-10T22:11:58.456Z,21.37
2018-01-10T22:14:26.641Z,15.97
2018-01-10T22:16:54.237Z,17.77
2018-01-10T22:19:23.640Z,14.93
2018-01-10T22:21:52.032Z,15.80
2018-01-10T22:24:20.021Z,14.53
2018-01-10T22:26:47.767Z,15.63
2018-01-10T22:29:16.159Z,13.17
2018-01-10T22:31:43.769Z,16.17
2018-01-10T22:34:11.340Z,15.10
2018-01-10T22:36:38.926Z,13.77
2018-01-10T22:39:08.503Z,14.87
2018-01-10T22:41:36.092Z,14.77
2018-01-10T22:44:03.666Z,16.47
2018-01-10T22:46:31.228Z,15.27
2018-01-10T22:48:59.616Z,16.67
2018-01-10T22:51:27.234Z,13.97
2018-01-10T22:53:54.880Z,18.07
2018-01-10T22:56:22.487Z,15.90
2018-01-10T22:58:50.862Z,15.43
2018-01-10T23:01:18.406Z,14.97
2018-01-10T23:03:47.014Z,15.07
2018-01-10T23:06:16.053Z,13.87
2018-01-10T23:08:43.645Z,15.30
2018-01-10T23:11:11.275Z,15.93
2018-01-10T23:13:38.853Z,17.90
2018-01-10T23:16:06.415Z,16.23
2018-01-10T23:18:34.087Z,21.43
2018-01-10T23:21:01.684Z,19.77
2018-01-10T23:23:29.265Z,23.97
2018-01-10T23:25:57.644Z,18.90
2018-01-10T23:28:26.152Z,17.83
2018-01-10T23:30:53.756Z,19.13
2018-01-10T23:33:21.342Z,19.33
2018-01-10T23:35:48.920Z,17.47
2018-01-10T23:38:20.014Z,20.37
2018-01-10T23:40:47.650Z,19.27
2018-01-10T23:43:15.233Z,20.67
2018-01-10T23:45:42.783Z,19.90
2018-01-10T23:48:11.329Z,21.47
2018-01-10T23:50:39.499Z,18.90
2018-01-10T23:53:07.169Z,20.23
2018-01-10T23:55:34.761Z,21.10
2018-01-10T23:58:03.301Z,21.10
